createdAt,value
2022-12-01T00:01:47.977Z,55.83
2022-12-01T00:08:08.417Z,56.33
2022-12-01T00:10:36.739Z,55.72
2022-12-01T00:13:08.685Z,62.65
2022-12-01T00:15:40.358Z,57.83
2022-12-01T00:18:07.300Z,53.30
2022-12-01T00:20:34.957Z,52.50
2022-12-01T00:23:07.546Z,56.47
2022-12-01T00:25:37.478Z,57.20
2022-12-01T00:28:05.230Z,56.55
2022-12-01T00:30:32.648Z,53.22
2022-12-01T00:33:02.595Z,53.80
2022-12-01T00:35:32.775Z,52.22
2022-12-01T00:37:59.469Z,55.33
2022-12-01T00:40:29.738Z,53.95
2022-12-01T00:42:57.510Z,55.65
2022-12-01T00:45:24.774Z,56.45
2022-12-01T00:47:51.381Z,59.33
2022-12-01T00:50:18.331Z,50.88
2022-12-01T00:52:45.124Z,52.55
2022-12-01T00:55:12.416Z,56.20
2022-12-01T00:57:39.706Z,57.63
2022-12-01T01:00:09.945Z,57.55
2022-12-01T01:02:39.211Z,59.80
2022-12-01T01:05:06.964Z,54.70
2022-12-01T01:07:33.517Z,55.80
2022-12-01T01:10:00.017Z,53.47
2022-12-01T01:12:28.112Z,56.97
2022-12-01T01:14:54.591Z,53.03
2022-12-01T01:17:21.058Z,51.78
2022-12-01T01:19:47.925Z,61.80
2022-12-01T01:22:14.710Z,50.85
2022-12-01T01:24:41.212Z,53.13
2022-12-01T01:27:07.767Z,52.60
2022-12-01T01:29:34.499Z,53.28
2022-12-01T01:32:01.040Z,59.10
2022-12-01T01:34:27.659Z,49.10
2022-12-01T01:36:54.113Z,58.47
2022-12-01T01:39:20.636Z,59.63
2022-12-01T01:41:47.382Z,53.42
2022-12-01T01:44:45.095Z,62.88
2022-12-01T01:47:13.317Z,53.13
2022-12-01T01:49:41.239Z,65.70
2022-12-01T01:52:08.304Z,54.72
2022-12-01T01:54:43.317Z,69.47
2022-12-01T01:57:13.705Z,64.00
2022-12-01T01:59:49.035Z,65.25
2022-12-01T02:02:16.072Z,67.85
2022-12-01T02:04:47.393Z,57.95
2022-12-01T02:07:18.112Z,72.63
2022-12-01T02:09:45.366Z,60.17
2022-12-01T02:12:34.300Z,66.13
2022-12-01T02:15:04.981Z,62.55
2022-12-01T02:17:56.953Z,63.60
2022-12-01T02:20:49.790Z,60.80
2022-12-01T02:26:29.156Z,57.80
2022-12-01T02:29:20.601Z,68.35
2022-12-01T02:32:09.051Z,68.07
2022-12-01T02:34:50.188Z,62.50
2022-12-01T02:37:40.784Z,70.25
2022-12-01T02:40:22.407Z,60.72
2022-12-01T02:43:02.221Z,64.03
2022-12-01T02:45:56.421Z,61.05
2022-12-01T02:48:28.307Z,64.07
2022-12-01T02:50:58.620Z,64.78
2022-12-01T02:53:27.055Z,66.70
2022-12-01T02:58:22.252Z,64.63
2022-12-01T03:00:59.375Z,64.28
2022-12-01T03:04:05.178Z,56.03
2022-12-01T03:06:46.979Z,67.90
2022-12-01T03:09:41.409Z,60.95
2022-12-01T03:12:57.435Z,64.10
2022-12-01T03:15:45.594Z,61.17
2022-12-01T03:18:29.071Z,59.20
2022-12-01T03:21:15.039Z,60.50
2022-12-01T03:23:47.090Z,49.47
2022-12-01T03:26:17.688Z,71.65
2022-12-01T03:28:49.839Z,64.65
2022-12-01T03:31:20.274Z,65.63
2022-12-01T03:33:52.259Z,57.75
2022-12-01T03:36:36.977Z,66.43
2022-12-01T03:39:08.690Z,64.53
2022-12-01T03:41:44.199Z,51.70
2022-12-01T03:44:21.292Z,56.47
2022-12-01T03:46:53.951Z,58.67
2022-12-01T03:49:23.694Z,56.95
2022-12-01T03:51:59.111Z,61.08
2022-12-01T03:54:52.141Z,55.83
2022-12-01T03:57:25.903Z,54.45
2022-12-01T03:59:53.814Z,56.70
2022-12-01T04:02:20.903Z,51.28
2022-12-01T04:04:47.492Z,53.28
2022-12-01T04:07:14.819Z,50.97
2022-12-01T04:09:41.941Z,56.05
2022-12-01T04:12:32.846Z,56.80
2022-12-01T04:15:02.521Z,56.42
2022-12-01T04:17:29.614Z,56.47
2022-12-01T04:19:56.470Z,58.80
2022-12-01T04:22:23.680Z,55.10
2022-12-01T04:24:50.201Z,53.33
2022-12-01T04:27:16.877Z,54.33
2022-12-01T04:29:43.449Z,53.45
2022-12-01T04:32:10.175Z,55.10
2022-12-01T04:34:36.883Z,55.33
2022-12-01T04:37:03.994Z,53.95
2022-12-01T04:39:30.452Z,57.78
2022-12-01T04:41:56.987Z,47.20
2022-12-01T04:44:23.595Z,49.65
2022-12-01T04:46:52.809Z,47.95
2022-12-01T04:49:21.473Z,51.80
2022-12-01T04:51:48.849Z,47.80
2022-12-01T04:54:16.424Z,45.83
2022-12-01T04:56:45.908Z,45.03
2022-12-01T04:59:12.790Z,50.97
2022-12-01T05:01:39.506Z,51.83
2022-12-01T05:04:06.161Z,51.25
2022-12-01T05:06:32.765Z,49.40
2022-12-01T05:09:01.668Z,50.83
2022-12-01T05:11:29.804Z,43.05
2022-12-01T05:13:56.314Z,51.70
2022-12-01T05:16:25.406Z,51.42
2022-12-01T05:19:18.802Z,53.80
2022-12-01T05:21:47.342Z,56.50
2022-12-01T05:26:41.948Z,50.40
2022-12-01T05:29:09.610Z,54.25
2022-12-01T05:31:36.251Z,47.63
2022-12-01T05:34:03.411Z,59.47
2022-12-01T05:36:30.051Z,57.92
2022-12-01T05:38:56.534Z,48.58
2022-12-01T05:41:23.075Z,61.47
2022-12-01T05:43:49.581Z,61.90
2022-12-01T05:46:16.161Z,60.33
2022-12-01T05:48:42.809Z,57.40
2022-12-01T05:51:10.853Z,64.65
2022-12-01T05:53:37.449Z,61.53
2022-12-01T05:56:04.430Z,60.20
2022-12-01T05:58:30.979Z,55.35
2022-12-01T06:00:57.534Z,56.72
2022-12-01T06:03:24.036Z,54.97
2022-12-01T06:05:50.973Z,56.10
2022-12-01T06:08:17.646Z,53.13
2022-12-01T06:10:44.663Z,55.55
2022-12-01T06:13:11.131Z,58.70
2022-12-01T06:15:37.751Z,61.30
2022-12-01T06:18:04.436Z,58.88
2022-12-01T06:20:31.055Z,59.70
2022-12-01T06:22:59.531Z,58.78
2022-12-01T06:25:26.128Z,56.65
2022-12-01T06:27:57.440Z,56.88
2022-12-01T06:30:24.044Z,53.53
2022-12-01T06:32:50.537Z,50.55
2022-12-01T06:35:17.015Z,60.72
2022-12-01T06:37:43.485Z,61.65
2022-12-01T06:40:10.771Z,54.35
2022-12-01T06:42:37.313Z,53.47
2022-12-01T06:45:03.981Z,51.67
2022-12-01T06:47:30.429Z,53.10
2022-12-01T06:49:56.975Z,54.35
2022-12-01T06:52:23.532Z,65.07
2022-12-01T06:54:50.077Z,53.40
2022-12-01T06:57:16.899Z,51.28
2022-12-01T06:59:43.496Z,50.60
2022-12-01T07:02:11.511Z,57.58
2022-12-01T07:04:38.075Z,54.15
2022-12-01T07:07:06.080Z,49.63
2022-12-01T07:09:32.979Z,58.72
2022-12-01T07:11:59.923Z,53.90
2022-12-01T07:14:27.284Z,52.38
2022-12-01T07:16:55.061Z,58.65
2022-12-01T07:19:21.817Z,50.75
2022-12-01T07:21:48.470Z,60.38
2022-12-01T07:24:15.117Z,53.33
2022-12-01T07:26:42.616Z,61.45
2022-12-01T07:29:10.559Z,58.72
2022-12-01T07:31:38.205Z,51.03
2022-12-01T07:34:05.346Z,56.92
2022-12-01T07:36:31.999Z,49.85
2022-12-01T07:38:58.698Z,51.88
2022-12-01T07:41:25.549Z,49.05
2022-12-01T07:43:52.090Z,59.10
2022-12-01T07:46:23.530Z,58.97
2022-12-01T07:48:51.672Z,60.45
2022-12-01T07:51:18.592Z,61.90
2022-12-01T07:53:46.592Z,55.40
2022-12-01T07:56:13.634Z,59.80
2022-12-01T07:58:40.962Z,62.15
2022-12-01T08:01:09.544Z,55.53
2022-12-01T08:03:36.529Z,54.22
2022-12-01T08:06:05.048Z,66.30
2022-12-01T08:11:05.509Z,57.63
2022-12-01T08:13:32.509Z,64.35
2022-12-01T08:15:59.151Z,61.83
2022-12-01T08:18:25.706Z,57.83
2022-12-01T08:20:56.011Z,63.50
2022-12-01T08:23:25.738Z,66.18
2022-12-01T08:25:55.541Z,69.47
2022-12-01T08:28:22.136Z,70.22
2022-12-01T08:30:48.712Z,64.50
2022-12-01T08:33:15.281Z,59.45
2022-12-01T08:35:41.883Z,61.45
2022-12-01T08:38:09.558Z,56.35
2022-12-01T08:40:36.101Z,63.85
2022-12-01T08:43:02.690Z,56.85
2022-12-01T08:45:29.233Z,60.22
2022-12-01T08:47:59.938Z,56.22
2022-12-01T08:50:27.718Z,60.33
2022-12-01T08:52:54.860Z,53.88
2022-12-01T08:55:22.671Z,65.85
2022-12-01T08:57:49.224Z,65.90
2022-12-01T09:00:16.756Z,62.35
2022-12-01T09:02:43.325Z,69.03
2022-12-01T09:05:09.940Z,70.80
2022-12-01T09:07:36.658Z,60.97
2022-12-01T09:10:03.776Z,61.92
2022-12-01T09:15:30.590Z,69.88
2022-12-01T09:17:57.123Z,64.10
2022-12-01T09:20:25.914Z,68.15
2022-12-01T09:22:52.368Z,65.63
2022-12-01T09:25:18.834Z,70.10
2022-12-01T09:27:45.430Z,69.65
2022-12-01T09:30:12.671Z,63.67
2022-12-01T09:32:39.296Z,66.10
2022-12-01T09:35:05.943Z,57.95
2022-12-01T09:37:32.568Z,64.45
2022-12-01T09:39:59.073Z,71.57
2022-12-01T09:42:30.849Z,60.75
2022-12-01T09:45:02.773Z,55.05
2022-12-01T09:47:33.896Z,61.45
2022-12-01T09:50:18.812Z,59.88
2022-12-01T09:52:57.561Z,56.47
2022-12-01T09:55:25.987Z,64.70
2022-12-01T09:57:58.357Z,60.90
2022-12-01T10:00:32.734Z,70.47
2022-12-01T10:03:06.718Z,70.63
2022-12-01T10:06:24.575Z,73.88
2022-12-01T10:08:37.282Z,64.43
2022-12-01T10:11:16.667Z,66.93
2022-12-01T10:13:43.927Z,62.60
2022-12-01T10:16:18.884Z,63.90
2022-12-01T10:19:13.310Z,73.20
2022-12-01T10:22:15.186Z,54.60
2022-12-01T10:25:01.302Z,54.78
2022-12-01T10:28:10.441Z,59.88
2022-12-01T10:30:48.448Z,64.18
2022-12-01T10:33:34.201Z,58.08
2022-12-01T10:36:01.354Z,59.88
2022-12-01T10:38:35.404Z,62.00
2022-12-01T10:41:06.027Z,61.53
2022-12-01T10:43:42.060Z,66.43
2022-12-01T10:46:32.968Z,64.50
2022-12-01T10:49:07.534Z,64.47
2022-12-01T10:51:47.338Z,62.53
2022-12-01T10:54:14.147Z,56.60
2022-12-01T10:56:43.010Z,53.88
2022-12-01T10:59:46.631Z,59.30
2022-12-01T11:02:21.190Z,49.78
2022-12-01T11:04:58.186Z,56.75
2022-12-01T11:07:28.117Z,63.17
2022-12-01T11:10:02.664Z,57.38
2022-12-01T11:12:29.505Z,57.13
2022-12-01T11:14:57.414Z,47.92
2022-12-01T11:17:29.424Z,59.15
2022-12-01T11:19:56.307Z,47.45
2022-12-01T11:22:31.533Z,62.22
2022-12-01T11:25:05.792Z,52.20
2022-12-01T11:27:51.087Z,58.63
2022-12-01T11:30:24.592Z,61.85
2022-12-01T11:32:58.221Z,60.45
2022-12-01T11:35:28.024Z,60.45
2022-12-01T11:38:28.363Z,51.55
2022-12-01T11:40:51.305Z,58.58
2022-12-01T11:43:33.260Z,68.47
2022-12-01T11:46:04.687Z,57.17
2022-12-01T11:48:34.639Z,57.78
2022-12-01T11:51:25.410Z,57.85
2022-12-01T11:54:16.284Z,57.40
2022-12-01T11:56:44.666Z,55.65
2022-12-01T12:01:57.899Z,55.80
2022-12-01T12:04:31.723Z,53.33
2022-12-01T12:07:11.289Z,56.10
2022-12-01T12:10:15.118Z,57.45
2022-12-01T12:13:08.144Z,52.05
2022-12-01T12:16:05.727Z,55.83
2022-12-01T12:18:44.027Z,57.75
2022-12-01T12:21:46.077Z,53.33
2022-12-01T12:24:38.352Z,49.10
2022-12-01T12:27:15.187Z,47.83
2022-12-01T12:30:03.093Z,48.08
2022-12-01T12:32:38.748Z,47.42
2022-12-01T12:35:20.348Z,46.83
2022-12-01T12:38:32.421Z,50.42
2022-12-01T12:41:38.065Z,43.00
2022-12-01T12:44:47.986Z,47.45
2022-12-01T12:47:31.538Z,39.85
2022-12-01T12:50:34.547Z,38.25
2022-12-01T12:53:16.222Z,41.15
2022-12-01T12:55:50.255Z,42.28
2022-12-01T12:58:25.915Z,35.83
2022-12-01T13:01:01.468Z,34.80
2022-12-01T13:03:49.146Z,37.85
2022-12-01T13:06:27.957Z,35.85
2022-12-01T13:09:04.380Z,35.72
2022-12-01T13:11:38.448Z,31.60
2022-12-01T13:14:14.292Z,33.58
2022-12-01T13:16:44.113Z,28.35
2022-12-01T13:19:17.244Z,32.33
2022-12-01T13:21:46.550Z,33.78
2022-12-01T13:24:22.771Z,32.05
2022-12-01T13:27:01.282Z,37.53
2022-12-01T13:29:40.979Z,36.17
2022-12-01T13:32:30.536Z,30.75
2022-12-01T13:34:59.004Z,36.20
2022-12-01T13:39:55.585Z,31.45
2022-12-01T13:42:25.927Z,36.08
2022-12-01T13:44:56.999Z,34.92
2022-12-01T13:47:57.604Z,31.00
2022-12-01T13:50:36.468Z,31.20
2022-12-01T13:53:25.373Z,24.75
2022-12-01T13:56:04.036Z,25.73
2022-12-01T13:58:33.720Z,30.35
2022-12-01T14:01:35.053Z,32.55
2022-12-01T14:04:10.463Z,26.88
2022-12-01T14:06:50.551Z,27.98
2022-12-01T14:09:27.972Z,29.95
2022-12-01T14:11:58.394Z,27.58
2022-12-01T14:14:32.687Z,26.25
2022-12-01T14:17:02.643Z,30.25
2022-12-01T14:19:32.784Z,25.17
2022-12-01T14:22:00.968Z,26.17
2022-12-01T14:24:40.514Z,32.53
2022-12-01T14:27:08.712Z,26.35
2022-12-01T14:29:43.022Z,25.10
2022-12-01T14:32:09.443Z,25.05
2022-12-01T14:34:37.638Z,27.02
2022-12-01T14:37:11.896Z,28.17
2022-12-01T14:39:42.332Z,27.35
2022-12-01T14:42:36.908Z,20.98
2022-12-01T14:45:05.497Z,23.58
2022-12-01T14:47:46.659Z,24.27
2022-12-01T14:50:33.128Z,22.20
2022-12-01T14:53:14.211Z,19.08
2022-12-01T14:55:47.698Z,24.42
2022-12-01T14:58:19.903Z,23.45
2022-12-01T15:01:13.811Z,26.73
2022-12-01T15:03:59.252Z,24.65
2022-12-01T15:06:28.519Z,25.85
2022-12-01T15:12:02.363Z,23.85
2022-12-01T15:14:32.054Z,21.95
2022-12-01T15:16:59.346Z,23.17
2022-12-01T15:19:33.916Z,25.85
2022-12-01T15:22:05.592Z,22.05
2022-12-01T15:24:33.963Z,25.30
2022-12-01T15:27:03.798Z,23.33
2022-12-01T15:29:52.226Z,22.63
2022-12-01T15:32:21.620Z,21.63
2022-12-01T15:34:51.933Z,27.50
2022-12-01T15:37:21.991Z,26.83
2022-12-01T15:39:48.715Z,26.75
2022-12-01T15:42:22.846Z,21.42
2022-12-01T15:45:05.222Z,21.27
2022-12-01T15:47:41.267Z,25.85
2022-12-01T15:50:31.553Z,21.00
2022-12-01T15:53:00.827Z,21.95
2022-12-01T15:55:31.030Z,24.40
2022-12-01T15:57:59.633Z,22.48
2022-12-01T16:00:26.413Z,24.55
2022-12-01T16:02:56.350Z,21.05
2022-12-01T16:05:26.887Z,20.30
2022-12-01T16:10:40.067Z,18.58
2022-12-01T16:13:37.836Z,20.30
2022-12-01T16:16:42.044Z,23.45
2022-12-01T16:19:08.617Z,28.08
2022-12-01T16:22:12.038Z,21.25
2022-12-01T16:24:46.653Z,26.42
2022-12-01T16:27:33.592Z,25.63
2022-12-01T16:30:06.987Z,26.63
2022-12-01T16:32:42.644Z,29.63
2022-12-01T16:35:21.299Z,28.15
2022-12-01T16:37:48.125Z,23.88
2022-12-01T16:40:16.822Z,22.33
2022-12-01T16:42:43.491Z,24.80
2022-12-01T16:45:14.876Z,23.58
2022-12-01T16:47:42.653Z,28.38
2022-12-01T16:50:17.401Z,23.80
2022-12-01T16:52:45.639Z,29.58
2022-12-01T16:55:18.698Z,24.50
2022-12-01T16:57:45.183Z,24.83
2022-12-01T17:00:12.237Z,23.90
2022-12-01T17:02:38.798Z,26.40
2022-12-01T17:05:05.536Z,28.67
2022-12-01T17:07:32.022Z,28.70
2022-12-01T17:09:58.686Z,26.50
2022-12-01T17:12:26.774Z,24.25
2022-12-01T17:14:53.313Z,25.52
2022-12-01T17:17:19.868Z,22.80
2022-12-01T17:19:46.381Z,25.50
2022-12-01T17:22:12.948Z,24.63
2022-12-01T17:24:39.572Z,23.50
2022-12-01T17:27:06.029Z,23.33
2022-12-01T17:29:32.524Z,25.90
2022-12-01T17:31:59.035Z,27.20
2022-12-01T17:34:25.495Z,23.85
2022-12-01T17:36:52.046Z,29.10
2022-12-01T17:39:19.384Z,25.60
2022-12-01T17:41:45.879Z,23.25
2022-12-01T17:44:12.496Z,24.23
2022-12-01T17:46:39.025Z,22.88
2022-12-01T17:49:09.337Z,26.95
2022-12-01T17:51:36.773Z,24.27
2022-12-01T17:54:05.543Z,19.23
2022-12-01T17:56:32.364Z,24.13
2022-12-01T17:58:58.841Z,19.65
2022-12-01T18:01:30.173Z,20.73
2022-12-01T18:03:58.875Z,22.77
2022-12-01T18:06:26.746Z,24.02
2022-12-01T18:08:53.984Z,23.23
2022-12-01T18:11:20.987Z,18.73
2022-12-01T18:13:50.975Z,24.30
2022-12-01T18:16:31.844Z,21.17
2022-12-01T18:19:00.026Z,24.65
2022-12-01T18:21:27.848Z,22.00
2022-12-01T18:23:57.144Z,29.08
2022-12-01T18:26:25.149Z,31.23
2022-12-01T18:28:56.653Z,31.63
2022-12-01T18:31:24.086Z,27.80
2022-12-01T18:33:51.637Z,27.25
2022-12-01T18:36:22.033Z,26.38
2022-12-01T18:38:50.081Z,25.30
2022-12-01T18:41:17.782Z,25.85
2022-12-01T18:43:44.889Z,24.75
2022-12-01T18:46:16.385Z,25.05
2022-12-01T18:48:48.167Z,23.00
2022-12-01T18:51:15.215Z,23.77
2022-12-01T18:53:42.168Z,20.60
2022-12-01T18:56:11.911Z,26.10
2022-12-01T18:58:40.136Z,20.02
2022-12-01T19:01:22.971Z,22.15
2022-12-01T19:03:49.981Z,23.73
2022-12-01T19:06:17.759Z,29.80
2022-12-01T19:08:44.247Z,28.27
2022-12-01T19:11:10.864Z,25.08
2022-12-01T19:13:37.430Z,28.52
2022-12-01T19:16:12.870Z,25.13
2022-12-01T19:18:39.902Z,29.05
2022-12-01T19:21:08.172Z,31.52
2022-12-01T19:23:34.742Z,27.30
2022-12-01T19:26:10.137Z,30.10
2022-12-01T19:28:37.744Z,30.25
2022-12-01T19:31:11.184Z,31.30
2022-12-01T19:33:38.177Z,28.85
2022-12-01T19:36:10.536Z,25.83
2022-12-01T19:38:37.403Z,30.00
2022-12-01T19:41:05.029Z,33.85
2022-12-01T19:43:34.031Z,37.15
2022-12-01T19:46:05.831Z,31.10
2022-12-01T19:48:32.435Z,31.88
2022-12-01T19:50:59.134Z,36.28
2022-12-01T19:53:29.170Z,33.65
2022-12-01T19:56:02.121Z,30.75
2022-12-01T19:58:31.201Z,35.90
2022-12-01T20:01:06.188Z,36.83
2022-12-01T20:03:33.284Z,38.03
2022-12-01T20:06:27.587Z,35.03
2022-12-01T20:09:00.040Z,34.10
2022-12-01T20:11:29.751Z,33.30
2022-12-01T20:13:56.767Z,38.22
2022-12-01T20:16:24.732Z,30.17
2022-12-01T20:18:52.587Z,32.47
2022-12-01T20:21:33.409Z,34.75
2022-12-01T20:26:31.711Z,33.83
2022-12-01T20:29:08.933Z,37.67
2022-12-01T20:31:37.079Z,30.10
2022-12-01T20:34:07.411Z,32.65
2022-12-01T20:36:34.586Z,38.40
2022-12-01T20:39:01.158Z,33.10
2022-12-01T20:41:27.771Z,34.78
2022-12-01T20:43:54.322Z,37.85
2022-12-01T20:46:20.900Z,38.50
2022-12-01T20:48:47.479Z,35.40
2022-12-01T20:51:14.747Z,33.45
2022-12-01T20:53:54.503Z,35.83
2022-12-01T20:56:29.284Z,45.65
2022-12-01T20:58:55.806Z,38.20
2022-12-01T21:01:22.545Z,39.15
2022-12-01T21:03:50.888Z,42.53
2022-12-01T21:06:17.943Z,45.67
2022-12-01T21:08:46.589Z,46.92
2022-12-01T21:11:44.334Z,46.58
2022-12-01T21:14:18.045Z,44.65
2022-12-01T21:16:48.354Z,48.53
2022-12-01T21:19:23.903Z,43.53
2022-12-01T21:21:50.476Z,46.22
2022-12-01T21:24:20.028Z,42.97
2022-12-01T21:26:48.220Z,48.17
2022-12-01T21:29:22.194Z,58.10
2022-12-01T21:31:52.345Z,51.45
2022-12-01T21:34:28.839Z,47.65
2022-12-01T21:36:59.031Z,52.03
2022-12-01T21:39:26.453Z,41.40
2022-12-01T21:41:56.556Z,53.42
2022-12-01T21:44:29.441Z,50.47
2022-12-01T21:46:57.359Z,51.63
2022-12-01T21:49:39.038Z,53.58
2022-12-01T21:52:19.724Z,53.85
2022-12-01T21:57:43.380Z,51.83
2022-12-01T22:00:36.872Z,53.40
2022-12-01T22:03:26.294Z,53.20
2022-12-01T22:06:29.311Z,51.40
2022-12-01T22:09:01.259Z,53.55
2022-12-01T22:11:29.702Z,57.25
2022-12-01T22:14:04.422Z,61.05
2022-12-01T22:16:32.246Z,57.58
2022-12-01T22:19:01.679Z,61.33
2022-12-01T22:21:33.545Z,57.35
2022-12-01T22:24:14.589Z,56.65
2022-12-01T22:26:46.412Z,63.17
2022-12-01T22:30:29.558Z,56.60
2022-12-01T22:32:58.452Z,53.20
2022-12-01T22:35:41.936Z,59.38
2022-12-01T22:38:11.076Z,61.95
2022-12-01T22:40:58.172Z,59.60
2022-12-01T22:43:27.555Z,62.95
2022-12-01T22:46:05.277Z,61.70
2022-12-01T22:48:39.186Z,58.78
2022-12-01T22:51:20.848Z,66.57
2022-12-01T22:53:48.315Z,65.95
2022-12-01T22:57:00.810Z,63.70
2022-12-01T22:59:46.248Z,63.17
2022-12-01T23:02:23.333Z,65.63
2022-12-01T23:04:55.770Z,69.30
2022-12-01T23:07:32.690Z,66.30
2022-12-01T23:10:29.918Z,68.55
2022-12-01T23:13:00.449Z,68.32
2022-12-01T23:15:34.154Z,67.05
2022-12-01T23:18:33.434Z,66.50
2022-12-01T23:21:01.746Z,71.93
2022-12-01T23:23:30.860Z,66.15
2022-12-01T23:25:58.311Z,68.18
2022-12-01T23:28:25.131Z,68.30
2022-12-01T23:30:54.975Z,62.50
2022-12-01T23:33:24.186Z,60.03
2022-12-01T23:36:05.165Z,65.07
2022-12-01T23:38:42.428Z,64.15
2022-12-01T23:41:25.447Z,68.55
2022-12-01T23:44:01.984Z,62.53
2022-12-01T23:46:28.505Z,62.30
2022-12-01T23:49:04.369Z,67.78
2022-12-01T23:51:37.103Z,61.47
2022-12-01T23:54:14.141Z,73.28
2022-12-01T23:56:40.625Z,61.65
2022-12-01T23:59:13.362Z,66.85
